sensor_id;sensor_type;location;lat;lon;timestamp;P1;durP1;ratioP1;P2;durP2;ratioP2
9108;SDS011;4590;51.462;6.692;2024-01-11T10:55:39;38.75;;;21.42;;
9108;SDS011;4590;51.462;6.692;2024-01-11T12:10:54;35.70;;;20.45;;
9108;SDS011;4590;51.462;6.692;2024-01-11T16:20:00;11.05;;;6.53;;
9108;SDS011;4590;51.462;6.692;2024-01-11T16:22:28;9.52;;;5.68;;
9108;SDS011;4590;51.462;6.692;2024-01-11T16:24:53;10.37;;;5.73;;
9108;SDS011;4590;51.462;6.692;2024-01-11T16:29:45;12.20;;;6.57;;
9108;SDS011;4590;51.462;6.692;2024-01-11T16:32:10;11.57;;;6.93;;
9108;SDS011;4590;51.462;6.692;2024-01-11T16:34:37;10.60;;;6.43;;
9108;SDS011;4590;51.462;6.692;2024-01-11T16:37:04;10.10;;;6.05;;
9108;SDS011;4590;51.462;6.692;2024-01-11T16:39:30;10.30;;;5.95;;
9108;SDS011;4590;51.462;6.692;2024-01-11T16:41:55;9.00;;;5.07;;
9108;SDS011;4590;51.462;6.692;2024-01-11T16:44:21;10.87;;;5.57;;
9108;SDS011;4590;51.462;6.692;2024-01-11T16:46:46;11.43;;;5.80;;
9108;SDS011;4590;51.462;6.692;2024-01-11T16:49:11;10.50;;;6.50;;
9108;SDS011;4590;51.462;6.692;2024-01-11T16:54:09;9.45;;;5.82;;
9108;SDS011;4590;51.462;6.692;2024-01-11T16:56:35;9.87;;;5.87;;
9108;SDS011;4590;51.462;6.692;2024-01-11T16:59:00;10.20;;;6.20;;
9108;SDS011;4590;51.462;6.692;2024-01-11T17:01:25;14.80;;;8.63;;
9108;SDS011;4590;51.462;6.692;2024-01-11T17:03:52;13.00;;;7.13;;
9108;SDS011;4590;51.462;6.692;2024-01-11T17:06:17;15.00;;;8.90;;
9108;SDS011;4590;51.462;6.692;2024-01-11T17:08:44;17.02;;;8.35;;
9108;SDS011;4590;51.462;6.692;2024-01-11T17:11:10;12.25;;;8.13;;
9108;SDS011;4590;51.462;6.692;2024-01-11T17:13:35;14.57;;;8.90;;
9108;SDS011;4590;51.462;6.692;2024-01-11T17:16:00;13.73;;;9.40;;
9108;SDS011;4590;51.462;6.692;2024-01-11T17:18:26;17.20;;;9.90;;
9108;SDS011;4590;51.462;6.692;2024-01-11T17:20:51;13.63;;;8.67;;
9108;SDS011;4590;51.462;6.692;2024-01-11T17:23:16;14.40;;;8.93;;
9108;SDS011;4590;51.462;6.692;2024-01-11T17:25:42;16.10;;;9.53;;
9108;SDS011;4590;51.462;6.692;2024-01-11T17:28:08;16.10;;;9.77;;
9108;SDS011;4590;51.462;6.692;2024-01-11T17:30:33;15.87;;;9.93;;
9108;SDS011;4590;51.462;6.692;2024-01-11T17:32:58;14.20;;;9.63;;
9108;SDS011;4590;51.462;6.692;2024-01-11T17:35:24;14.37;;;9.17;;
9108;SDS011;4590;51.462;6.692;2024-01-11T17:37:49;16.80;;;10.50;;
9108;SDS011;4590;51.462;6.692;2024-01-11T17:40:14;16.53;;;10.03;;
9108;SDS011;4590;51.462;6.692;2024-01-11T17:42:40;21.03;;;11.37;;
9108;SDS011;4590;51.462;6.692;2024-01-11T17:45:05;17.10;;;11.27;;
9108;SDS011;4590;51.462;6.692;2024-01-11T17:47:30;18.33;;;11.27;;
9108;SDS011;4590;51.462;6.692;2024-01-11T17:49:56;36.33;;;17.07;;
9108;SDS011;4590;51.462;6.692;2024-01-11T17:52:21;25.37;;;13.23;;
9108;SDS011;4590;51.462;6.692;2024-01-11T17:54:46;25.97;;;13.77;;
9108;SDS011;4590;51.462;6.692;2024-01-11T17:57:12;21.07;;;12.73;;
9108;SDS011;4590;51.462;6.692;2024-01-11T17:59:37;18.20;;;11.53;;
9108;SDS011;4590;51.462;6.692;2024-01-11T18:02:02;17.87;;;11.80;;
9108;SDS011;4590;51.462;6.692;2024-01-11T18:04:28;19.17;;;10.17;;
9108;SDS011;4590;51.462;6.692;2024-01-11T18:06:53;17.33;;;11.13;;
9108;SDS011;4590;51.462;6.692;2024-01-11T18:09:19;19.17;;;12.17;;
9108;SDS011;4590;51.462;6.692;2024-01-11T18:11:44;21.40;;;13.40;;
9108;SDS011;4590;51.462;6.692;2024-01-11T18:14:10;18.53;;;11.77;;
9108;SDS011;4590;51.462;6.692;2024-01-11T18:16:36;20.92;;;13.02;;
9108;SDS011;4590;51.462;6.692;2024-01-11T18:19:01;19.00;;;12.93;;
9108;SDS011;4590;51.462;6.692;2024-01-11T18:21:27;24.17;;;13.83;;
9108;SDS011;4590;51.462;6.692;2024-01-11T18:23:53;23.65;;;13.88;;
9108;SDS011;4590;51.462;6.692;2024-01-11T18:26:18;24.80;;;14.10;;
9108;SDS011;4590;51.462;6.692;2024-01-11T18:28:44;34.53;;;16.00;;
9108;SDS011;4590;51.462;6.692;2024-01-11T18:31:13;20.33;;;12.93;;
9108;SDS011;4590;51.462;6.692;2024-01-11T18:33:39;21.88;;;12.98;;
9108;SDS011;4590;51.462;6.692;2024-01-11T18:36:05;20.70;;;13.20;;
9108;SDS011;4590;51.462;6.692;2024-01-11T18:38:30;22.13;;;12.77;;
9108;SDS011;4590;51.462;6.692;2024-01-11T18:40:56;21.20;;;12.90;;
9108;SDS011;4590;51.462;6.692;2024-01-11T18:43:21;19.03;;;12.30;;
9108;SDS011;4590;51.462;6.692;2024-01-11T18:45:47;19.17;;;11.77;;
9108;SDS011;4590;51.462;6.692;2024-01-11T18:48:13;15.40;;;10.73;;
9108;SDS011;4590;51.462;6.692;2024-01-11T18:50:38;18.97;;;11.57;;
9108;SDS011;4590;51.462;6.692;2024-01-11T18:53:04;18.33;;;11.57;;
9108;SDS011;4590;51.462;6.692;2024-01-11T18:55:29;18.10;;;11.00;;
9108;SDS011;4590;51.462;6.692;2024-01-11T18:57:56;21.00;;;10.50;;
9108;SDS011;4590;51.462;6.692;2024-01-11T19:00:21;18.55;;;10.13;;
9108;SDS011;4590;51.462;6.692;2024-01-11T19:02:47;18.67;;;11.27;;
9108;SDS011;4590;51.462;6.692;2024-01-11T19:05:14;17.73;;;10.80;;
9108;SDS011;4590;51.462;6.692;2024-01-11T19:07:41;22.42;;;14.20;;
9108;SDS011;4590;51.462;6.692;2024-01-11T19:10:08;30.98;;;16.60;;
9108;SDS011;4590;51.462;6.692;2024-01-11T19:12:34;23.27;;;13.10;;
9108;SDS011;4590;51.462;6.692;2024-01-11T19:15:00;18.55;;;11.88;;
9108;SDS011;4590;51.462;6.692;2024-01-11T19:17:26;19.33;;;11.57;;
9108;SDS011;4590;51.462;6.692;2024-01-11T19:19:51;19.83;;;12.47;;
9108;SDS011;4590;51.462;6.692;2024-01-11T19:22:16;20.83;;;12.83;;
9108;SDS011;4590;51.462;6.692;2024-01-11T19:24:42;20.90;;;12.50;;
9108;SDS011;4590;51.462;6.692;2024-01-11T19:27:07;23.50;;;13.90;;
9108;SDS011;4590;51.462;6.692;2024-01-11T19:29:32;20.57;;;12.47;;
9108;SDS011;4590;51.462;6.692;2024-01-11T19:31:59;22.50;;;13.55;;
9108;SDS011;4590;51.462;6.692;2024-01-11T19:34:25;20.40;;;13.35;;
9108;SDS011;4590;51.462;6.692;2024-01-11T19:36:50;21.70;;;14.00;;
9108;SDS011;4590;51.462;6.692;2024-01-11T19:39:15;23.10;;;14.13;;
9108;SDS011;4590;51.462;6.692;2024-01-11T19:41:41;26.57;;;14.57;;
9108;SDS011;4590;51.462;6.692;2024-01-11T19:44:06;25.27;;;14.97;;
9108;SDS011;4590;51.462;6.692;2024-01-11T19:46:35;23.30;;;14.05;;
9108;SDS011;4590;51.462;6.692;2024-01-11T19:49:00;25.83;;;14.70;;
9108;SDS011;4590;51.462;6.692;2024-01-11T19:51:26;29.17;;;16.37;;
9108;SDS011;4590;51.462;6.692;2024-01-11T19:53:52;25.67;;;15.77;;
9108;SDS011;4590;51.462;6.692;2024-01-11T19:58:44;25.90;;;16.05;;
9108;SDS011;4590;51.462;6.692;2024-01-11T20:01:10;26.75;;;16.00;;
9108;SDS011;4590;51.462;6.692;2024-01-11T20:03:35;25.27;;;15.57;;
9108;SDS011;4590;51.462;6.692;2024-01-11T20:06:01;24.13;;;14.23;;
9108;SDS011;4590;51.462;6.692;2024-01-11T20:08:26;26.27;;;15.03;;
9108;SDS011;4590;51.462;6.692;2024-01-11T20:10:51;24.40;;;15.10;;
9108;SDS011;4590;51.462;6.692;2024-01-11T20:13:17;27.05;;;15.52;;
9108;SDS011;4590;51.462;6.692;2024-01-11T20:15:42;24.60;;;13.97;;
9108;SDS011;4590;51.462;6.692;2024-01-11T20:18:08;24.80;;;15.38;;
9108;SDS011;4590;51.462;6.692;2024-01-11T20:20:37;30.67;;;16.13;;
9108;SDS011;4590;51.462;6.692;2024-01-11T20:23:03;29.10;;;15.57;;
9108;SDS011;4590;51.462;6.692;2024-01-11T20:25:28;31.10;;;15.63;;
9108;SDS011;4590;51.462;6.692;2024-01-11T20:27:54;28.63;;;15.40;;
9108;SDS011;4590;51.462;6.692;2024-01-11T20:30:20;25.65;;;15.77;;
9108;SDS011;4590;51.462;6.692;2024-01-11T20:32:45;27.83;;;15.40;;
9108;SDS011;4590;51.462;6.692;2024-01-11T20:35:12;29.80;;;16.60;;
9108;SDS011;4590;51.462;6.692;2024-01-11T20:37:37;26.17;;;15.77;;
9108;SDS011;4590;51.462;6.692;2024-01-11T20:40:09;27.52;;;16.48;;
9108;SDS011;4590;51.462;6.692;2024-01-11T20:42:36;31.23;;;17.10;;
9108;SDS011;4590;51.462;6.692;2024-01-11T20:45:03;30.15;;;15.55;;
9108;SDS011;4590;51.462;6.692;2024-01-11T20:47:30;28.10;;;16.60;;
9108;SDS011;4590;51.462;6.692;2024-01-11T20:49:57;29.30;;;15.98;;
9108;SDS011;4590;51.462;6.692;2024-01-11T20:55:44;25.77;;;15.70;;
9108;SDS011;4590;51.462;6.692;2024-01-11T20:58:09;26.67;;;15.53;;
9108;SDS011;4590;51.462;6.692;2024-01-11T21:00:35;28.07;;;15.70;;
9108;SDS011;4590;51.462;6.692;2024-01-11T21:03:00;31.57;;;18.30;;
9108;SDS011;4590;51.462;6.692;2024-01-11T21:05:27;28.25;;;16.35;;
9108;SDS011;4590;51.462;6.692;2024-01-11T21:07:52;31.50;;;16.83;;
9108;SDS011;4590;51.462;6.692;2024-01-11T21:10:18;31.53;;;17.87;;
9108;SDS011;4590;51.462;6.692;2024-01-11T21:12:43;31.73;;;17.70;;
9108;SDS011;4590;51.462;6.692;2024-01-11T21:15:09;28.43;;;17.30;;
9108;SDS011;4590;51.462;6.692;2024-01-11T21:17:35;29.90;;;17.00;;
9108;SDS011;4590;51.462;6.692;2024-01-11T21:20:00;32.15;;;17.52;;
9108;SDS011;4590;51.462;6.692;2024-01-11T21:22:25;31.87;;;18.13;;
9108;SDS011;4590;51.462;6.692;2024-01-11T21:24:51;31.03;;;17.03;;
9108;SDS011;4590;51.462;6.692;2024-01-11T21:27:17;28.83;;;16.17;;
9108;SDS011;4590;51.462;6.692;2024-01-11T21:29:43;29.17;;;17.37;;
9108;SDS011;4590;51.462;6.692;2024-01-11T21:32:08;27.30;;;15.53;;
9108;SDS011;4590;51.462;6.692;2024-01-11T21:34:34;29.80;;;16.40;;
9108;SDS011;4590;51.462;6.692;2024-01-11T21:36:59;30.90;;;16.73;;
9108;SDS011;4590;51.462;6.692;2024-01-11T21:39:24;30.70;;;17.17;;
9108;SDS011;4590;51.462;6.692;2024-01-11T21:41:50;31.03;;;17.60;;
9108;SDS011;4590;51.462;6.692;2024-01-11T21:44:16;28.67;;;16.27;;
9108;SDS011;4590;51.462;6.692;2024-01-11T21:46:41;33.20;;;17.43;;
9108;SDS011;4590;51.462;6.692;2024-01-11T21:49:07;31.40;;;16.97;;
9108;SDS011;4590;51.462;6.692;2024-01-11T21:51:32;29.00;;;16.50;;
9108;SDS011;4590;51.462;6.692;2024-01-11T21:53:57;28.23;;;16.67;;
9108;SDS011;4590;51.462;6.692;2024-01-11T21:56:23;27.97;;;16.60;;
9108;SDS011;4590;51.462;6.692;2024-01-11T21:58:49;30.25;;;16.23;;
9108;SDS011;4590;51.462;6.692;2024-01-11T22:01:14;32.23;;;17.00;;
9108;SDS011;4590;51.462;6.692;2024-01-11T22:03:40;33.30;;;18.63;;
9108;SDS011;4590;51.462;6.692;2024-01-11T22:06:06;31.25;;;16.95;;
9108;SDS011;4590;51.462;6.692;2024-01-11T22:08:33;31.42;;;17.90;;
9108;SDS011;4590;51.462;6.692;2024-01-11T22:10:59;36.83;;;19.23;;
9108;SDS011;4590;51.462;6.692;2024-01-11T22:13:24;33.50;;;18.17;;
9108;SDS011;4590;51.462;6.692;2024-01-11T22:15:50;36.27;;;19.87;;
9108;SDS011;4590;51.462;6.692;2024-01-11T22:18:15;42.20;;;21.70;;
9108;SDS011;4590;51.462;6.692;2024-01-11T22:20:40;34.47;;;19.17;;
9108;SDS011;4590;51.462;6.692;2024-01-11T22:23:05;34.10;;;19.20;;
9108;SDS011;4590;51.462;6.692;2024-01-11T22:25:31;36.20;;;19.53;;
9108;SDS011;4590;51.462;6.692;2024-01-11T22:27:57;36.70;;;19.17;;
9108;SDS011;4590;51.462;6.692;2024-01-11T22:30:23;34.63;;;19.17;;
9108;SDS011;4590;51.462;6.692;2024-01-11T22:32:48;30.77;;;17.20;;
9108;SDS011;4590;51.462;6.692;2024-01-11T22:35:14;34.27;;;19.27;;
9108;SDS011;4590;51.462;6.692;2024-01-11T22:37:39;36.90;;;20.50;;
9108;SDS011;4590;51.462;6.692;2024-01-11T22:40:05;38.40;;;19.63;;
9108;SDS011;4590;51.462;6.692;2024-01-11T22:42:31;35.30;;;19.00;;
9108;SDS011;4590;51.462;6.692;2024-01-11T22:44:59;36.38;;;18.30;;
9108;SDS011;4590;51.462;6.692;2024-01-11T22:47:25;33.53;;;17.98;;
9108;SDS011;4590;51.462;6.692;2024-01-11T22:49:50;34.60;;;18.67;;
9108;SDS011;4590;51.462;6.692;2024-01-11T22:52:16;35.33;;;19.37;;
9108;SDS011;4590;51.462;6.692;2024-01-11T22:54:43;41.47;;;21.58;;
9108;SDS011;4590;51.462;6.692;2024-01-11T22:57:09;41.63;;;21.73;;
9108;SDS011;4590;51.462;6.692;2024-01-11T22:59:34;42.73;;;23.30;;
9108;SDS011;4590;51.462;6.692;2024-01-11T23:02:03;40.90;;;22.17;;
9108;SDS011;4590;51.462;6.692;2024-01-11T23:04:30;41.30;;;22.00;;
9108;SDS011;4590;51.462;6.692;2024-01-11T23:06:57;41.65;;;22.63;;
9108;SDS011;4590;51.462;6.692;2024-01-11T23:09:23;44.22;;;23.50;;
9108;SDS011;4590;51.462;6.692;2024-01-11T23:11:48;43.17;;;23.17;;
9108;SDS011;4590;51.462;6.692;2024-01-11T23:14:16;43.25;;;24.45;;
9108;SDS011;4590;51.462;6.692;2024-01-11T23:16:46;43.63;;;23.52;;
9108;SDS011;4590;51.462;6.692;2024-01-11T23:19:12;48.67;;;22.52;;
9108;SDS011;4590;51.462;6.692;2024-01-11T23:21:38;44.47;;;23.52;;
9108;SDS011;4590;51.462;6.692;2024-01-11T23:24:04;49.80;;;27.17;;
9108;SDS011;4590;51.462;6.692;2024-01-11T23:26:29;52.57;;;27.20;;
9108;SDS011;4590;51.462;6.692;2024-01-11T23:28:55;50.37;;;26.63;;
9108;SDS011;4590;51.462;6.692;2024-01-11T23:31:20;56.27;;;28.30;;
9108;SDS011;4590;51.462;6.692;2024-01-11T23:33:45;56.20;;;26.63;;
9108;SDS011;4590;51.462;6.692;2024-01-11T23:36:11;53.33;;;27.27;;
9108;SDS011;4590;51.462;6.692;2024-01-11T23:38:37;52.03;;;25.85;;
9108;SDS011;4590;51.462;6.692;2024-01-11T23:41:04;47.22;;;25.17;;
9108;SDS011;4590;51.462;6.692;2024-01-11T23:43:29;47.47;;;24.67;;
9108;SDS011;4590;51.462;6.692;2024-01-11T23:45:54;47.90;;;24.63;;
9108;SDS011;4590;51.462;6.692;2024-01-11T23:48:22;50.45;;;25.52;;
9108;SDS011;4590;51.462;6.692;2024-01-11T23:50:47;48.30;;;25.03;;
9108;SDS011;4590;51.462;6.692;2024-01-11T23:53:13;45.83;;;24.17;;
9108;SDS011;4590;51.462;6.692;2024-01-11T23:55:38;51.80;;;26.30;;
9108;SDS011;4590;51.462;6.692;2024-01-11T23:58:03;44.63;;;22.17;;
